Time;durP1;ratioP1;P1;durP2;ratioP2;P2;SDS_P1;SDS_P2;PMS_P1;PMS_P2;Temp;Humidity;BMP_temperature;BMP_pressure;BME280_temperature;BME280_humidity;BME280_pressure;Samples;Min_cycle;Max_cycle;Signal;HPM_P1;HPM_P2
2022/07/15 00:01:38;;;;;;;5.12;1.50;;;;;;;17.52;100.00;98599.41;4400910;32;20391;-70
2022/07/15 00:04:10;;;;;;;4.18;1.60;;;;;;;17.32;100.00;98557.94;4415070;32;20050;-70
2022/07/15 00:06:37;;;;;;;2.60;1.33;;;;;;;17.42;100.00;98601.25;4427869;32;20068;-69
2022/07/15 00:09:03;;;;;;;4.00;1.40;;;;;;;17.43;100.00;98597.41;4430820;32;20038;-70
2022/07/15 00:11:29;;;;;;;4.20;1.48;;;;;;;17.29;100.00;98590.41;4429665;32;20026;-70
2022/07/15 00:13:56;;;;;;;8.27;1.42;;;;;;;17.25;100.00;98595.66;4415750;32;20046;-71
2022/07/15 00:16:29;;;;;;;4.68;1.30;;;;;;;17.28;100.00;98595.03;4414504;32;20072;-71
2022/07/15 00:18:56;;;;;;;5.12;1.87;;;;;;;17.05;100.00;98581.34;4420108;32;20466;-71
2022/07/15 00:21:22;;;;;;;2.87;1.30;;;;;;;16.81;100.00;98546.16;4414861;32;20061;-71
2022/07/15 00:23:48;;;;;;;3.00;1.30;;;;;;;17.07;100.00;98589.19;4415092;32;20082;-71
2022/07/15 00:26:15;;;;;;;4.72;1.50;;;;;;;17.01;100.00;98595.88;4414309;32;20087;-71
2022/07/15 00:28:41;;;;;;;5.40;1.37;;;;;;;16.94;100.00;98590.00;4414982;32;20034;-71
2022/07/15 00:31:07;;;;;;;8.38;1.60;;;;;;;16.64;100.00;98554.94;4414999;32;20107;-72
2022/07/15 00:33:34;;;;;;;7.68;1.75;;;;;;;16.92;100.00;98603.12;4414989;32;20042;-72
2022/07/15 00:36:00;;;;;;;3.12;1.73;;;;;;;16.90;100.00;98600.69;4425665;32;20042;-71
2022/07/15 00:38:26;;;;;;;6.18;1.70;;;;;;;16.83;100.00;98590.19;4426728;32;20033;-72
2022/07/15 00:40:53;;;;;;;6.05;1.15;;;;;;;16.53;100.00;98550.81;4414040;32;20072;-72
2022/07/15 00:43:19;;;;;;;1.83;1.30;;;;;;;16.66;100.00;98582.63;4400728;32;20114;-72
2022/07/15 00:45:46;;;;;;;5.78;1.92;;;;;;;16.33;100.00;98532.97;4417524;32;20038;-72
2022/07/15 00:48:13;;;;;;;2.42;1.35;;;;;;;16.68;100.00;98583.13;4417447;32;20054;-72
2022/07/15 00:50:46;;;;;;;2.87;1.25;;;;;;;16.67;100.00;98580.69;4419875;32;20056;-72
2022/07/15 00:53:18;;;;;;;5.18;1.70;;;;;;;16.54;100.00;98576.88;4416918;32;20077;-71
2022/07/15 00:55:45;;;;;;;4.43;1.33;;;;;;;16.48;100.00;98578.06;4416022;32;20038;-71
2022/07/15 00:58:20;;;;;;;4.65;1.62;;;;;;;16.33;100.00;98565.56;4414282;32;20535;-71
2022/07/15 01:00:48;;;;;;;4.53;1.85;;;;;;;16.30;100.00;98572.41;4417657;32;20062;-72
2022/07/15 01:03:17;;;;;;;6.78;1.42;;;;;;;16.35;100.00;98582.38;4424158;32;20042;-71
2022/07/15 01:05:46;;;;;;;3.47;1.45;;;;;;;16.26;100.00;98582.25;4432842;32;20042;-72
2022/07/15 01:08:13;;;;;;;5.95;1.60;;;;;;;16.27;100.00;98573.00;4432028;32;20046;-71
2022/07/15 01:10:41;;;;;;;6.68;2.20;;;;;;;16.18;100.00;98566.66;4431323;32;20019;-71
2022/07/15 01:13:07;;;;;;;2.05;1.48;;;;;;;16.36;100.00;98591.34;4421539;32;20057;-71
2022/07/15 01:15:35;;;;;;;3.53;1.77;;;;;;;16.30;100.00;98580.53;4416763;32;20364;-71
2022/07/15 01:18:03;;;;;;;4.12;1.30;;;;;;;16.29;100.00;98584.37;4417083;32;20076;-72
2022/07/15 01:20:31;;;;;;;3.37;1.33;;;;;;;16.23;100.00;98572.00;4416856;32;20050;-71
2022/07/15 01:22:59;;;;;;;9.15;1.50;;;;;;;15.74;100.00;98535.28;4416780;32;20159;-71
2022/07/15 01:25:27;;;;;;;6.32;1.60;;;;;;;15.79;100.00;98584.94;4416640;32;20126;-72
2022/07/15 01:27:54;;;;;;;9.48;2.15;;;;;;;15.56;100.00;98581.16;4417002;32;20022;-71
2022/07/15 01:30:22;;;;;;;5.55;1.50;;;;;;;15.24;100.00;98536.56;4417088;32;20047;-71
2022/07/15 01:32:48;;;;;;;2.03;1.62;;;;;;;15.16;100.00;98539.94;4421033;32;20116;-72
2022/07/15 01:35:15;;;;;;;3.95;1.27;;;;;;;15.32;100.00;98592.06;4415883;32;20063;-73
2022/07/15 01:37:43;;;;;;;8.85;2.15;;;;;;;15.26;100.00;98594.03;4416393;32;20052;-71
2022/07/15 01:40:11;;;;;;;3.17;2.12;;;;;;;15.14;100.00;98552.97;4416724;32;20082;-71
2022/07/15 01:42:39;;;;;;;2.25;1.98;;;;;;;15.59;100.00;98591.41;4417181;32;20417;-72
2022/07/15 01:45:08;;;;;;;2.60;1.58;;;;;;;15.26;100.00;98549.81;4415718;32;20444;-71
2022/07/15 01:47:46;;;;;;;5.37;1.80;;;;;;;15.57;100.00;98585.47;4416045;32;20042;-71
2022/07/15 01:50:15;;;;;;;4.75;1.52;;;;;;;15.33;100.00;98541.31;4416015;32;20038;-71
2022/07/15 01:52:44;;;;;;;9.85;2.12;;;;;;;15.08;100.00;98549.50;4420859;32;20062;-71
2022/07/15 01:55:11;;;;;;;2.87;1.77;;;;;;;15.29;100.00;98581.00;4430868;32;20056;-71
2022/07/15 01:57:38;;;;;;;1.92;1.77;;;;;;;15.48;100.00;98589.94;4416931;32;20087;-71
2022/07/15 02:00:08;;;;;;;6.55;1.92;;;;;;;15.48;100.00;98595.38;4416547;32;20314;-71
2022/07/15 02:02:43;;;;;;;6.60;1.80;;;;;;;15.48;100.00;98600.81;4431796;32;20038;-71
2022/07/15 02:05:10;;;;;;;5.05;1.80;;;;;;;15.59;100.00;98591.41;4432001;32;20042;-71
2022/07/15 02:07:38;;;;;;;8.00;1.73;;;;;;;15.66;100.00;98595.66;4431050;32;20076;-72
2022/07/15 02:10:05;;;;;;;5.60;1.70;;;;;;;15.62;100.00;98601.69;4430681;32;20039;-71
2022/07/15 02:12:32;;;;;;;4.45;1.58;;;;;;;15.40;100.00;98566.19;4431750;32;20913;-71
2022/07/15 02:14:58;;;;;;;9.32;1.65;;;;;;;15.33;100.00;98554.88;4425844;32;20173;-71
2022/07/15 02:17:27;;;;;;;5.40;1.80;;;;;;;15.53;100.00;98614.28;4416500;32;20473;-71
2022/07/15 02:19:53;;;;;;;11.18;1.80;;;;;;;15.51;100.00;98604.81;4418355;32;20572;-71
2022/07/15 02:22:20;;;;;;;6.07;2.37;;;;;;;15.53;100.00;98617.00;4431224;32;20038;-71
2022/07/15 02:24:46;;;;;;;4.25;2.03;;;;;;;15.48;100.00;98611.66;4431346;32;20769;-72
2022/07/15 02:27:16;;;;;;;8.27;2.17;;;;;;;15.46;100.00;98616.56;4430933;32;20045;-71
2022/07/15 02:29:42;;;;;;;9.07;2.03;;;;;;;15.43;100.00;98615.25;4422599;32;20432;-71
2022/07/15 02:32:09;;;;;;;3.15;2.08;;;;;;;15.23;100.00;98567.47;4416051;32;20371;-70
2022/07/15 02:34:36;;;;;;;13.62;3.45;;;;;;;15.38;100.00;98606.34;4415912;32;20087;-72
2022/07/15 02:37:02;;;;;;;4.22;1.77;;;;;;;15.42;100.00;98612.81;4416092;32;20027;-71
2022/07/15 02:39:32;;;;;;;3.53;1.83;;;;;;;15.51;100.00;98605.66;4415134;32;20050;-71
2022/07/15 02:41:58;;;;;;;5.30;2.20;;;;;;;15.49;100.00;98613.25;4417289;32;20077;-71
2022/07/15 02:44:24;;;;;;;3.75;2.10;;;;;;;15.51;100.00;98616.50;4418781;32;20030;-71
2022/07/15 02:46:51;;;;;;;5.30;2.03;;;;;;;15.55;100.00;98614.78;4415684;32;20068;-73
2022/07/15 02:49:19;;;;;;;6.35;1.83;;;;;;;15.43;100.00;98614.44;4425150;32;20038;-72
2022/07/15 02:51:45;;;;;;;2.72;1.67;;;;;;;15.12;100.00;98566.00;4417354;32;20413;-72
2022/07/15 02:54:13;;;;;;;3.65;1.60;;;;;;;15.38;100.00;98611.78;4414408;32;20053;-72
2022/07/15 02:56:40;;;;;;;8.57;4.25;;;;;;;15.38;100.00;98618.03;4415371;32;20203;-72
2022/07/15 02:59:06;;;;;;;3.75;1.80;;;;;;;15.12;100.00;98576.84;4415721;32;20056;-72
2022/07/15 03:01:33;;;;;;;3.40;1.77;;;;;;;15.29;100.00;98608.13;4415131;32;20066;-72
2022/07/15 03:04:00;;;;;;;5.10;1.67;;;;;;;15.40;100.00;98625.88;4414185;32;20348;-72
2022/07/15 03:06:26;;;;;;;8.00;2.58;;;;;;;15.26;100.00;98595.94;4412861;32;20037;-72
2022/07/15 03:08:53;;;;;;;3.20;2.17;;;;;;;15.20;100.00;98578.91;4418182;32;20115;-72
2022/07/15 03:11:19;;;;;;;7.45;2.65;;;;;;;15.41;100.00;98617.44;4429909;32;20037;-72
2022/07/15 03:13:46;;;;;;;10.32;2.75;;;;;;;15.44;100.00;98629.59;4427943;32;20063;-72
2022/07/15 03:16:13;;;;;;;7.70;2.33;;;;;;;15.35;100.00;98618.59;4415367;32;20046;-72
2022/07/15 03:18:40;;;;;;;3.10;1.70;;;;;;;15.47;100.00;98629.03;4415289;32;20059;-72
2022/07/15 03:21:07;;;;;;;8.20;1.90;;;;;;;15.44;100.00;98632.31;4415393;32;20046;-72
2022/07/15 03:23:33;;;;;;;3.55;1.62;;;;;;;15.35;100.00;98628.63;4413668;32;20042;-72
2022/07/15 03:26:00;;;;;;;4.28;2.22;;;;;;;15.08;100.00;98587.47;4414886;32;20401;-71
2022/07/15 03:28:26;;;;;;;7.12;1.87;;;;;;;15.36;100.00;98635.69;4415496;32;20035;-72
2022/07/15 03:30:56;;;;;;;2.67;1.42;;;;;;;15.32;100.00;98642.81;4402398;32;20087;-71
2022/07/15 03:33:22;;;;;;;9.25;1.90;;;;;;;15.31;100.00;98638.47;4424328;32;20038;-70
2022/07/15 03:35:49;;;;;;;10.88;2.10;;;;;;;15.33;100.00;98644.41;4427692;32;20443;-71
2022/07/15 03:38:18;;;;;;;3.17;1.75;;;;;;;15.08;100.00;98597.53;4416668;32;20082;-71
2022/07/15 03:40:51;;;;;;;3.70;1.83;;;;;;;15.20;100.00;98616.88;4419840;32;20086;-71
2022/07/15 03:43:17;;;;;;;6.87;1.92;;;;;;;15.34;100.00;98637.88;4429810;32;20037;-72
2022/07/15 03:45:44;;;;;;;4.03;1.33;;;;;;;14.90;100.00;98558.41;4430813;32;20046;-71
2022/07/15 03:48:11;;;;;;;7.18;2.67;;;;;;;15.52;100.00;98650.66;4430878;32;20363;-71
2022/07/15 03:50:38;;;;;;;2.75;1.60;;;;;;;15.29;100.00;98608.13;4417058;32;20070;-71
2022/07/15 03:53:04;;;;;;;3.53;1.90;;;;;;;15.30;100.00;98620.56;4428608;32;20064;-71
2022/07/15 03:55:31;;;;;;;1.62;1.20;;;;;;;15.51;100.00;98659.09;4429995;32;20378;-71
2022/07/15 03:57:57;;;;;;;4.53;1.33;;;;;;;15.49;100.00;98664.78;4430178;32;20527;-72
2022/07/15 04:00:24;;;;;;;6.32;1.85;;;;;;;15.41;100.00;98654.59;4430595;32;20064;-71
2022/07/15 04:02:50;;;;;;;2.22;1.35;;;;;;;15.23;100.00;98624.44;4415451;32;20090;-72
2022/07/15 04:05:17;;;;;;;1.85;1.48;;;;;;;15.30;100.00;98669.38;4418568;32;20194;-71
2022/07/15 04:07:43;;;;;;;3.05;1.45;;;;;;;15.32;100.00;98669.91;4401534;32;20050;-70
2022/07/15 04:10:10;;;;;;;6.75;2.45;;;;;;;15.17;100.00;98633.75;4415230;32;20034;-71
2022/07/15 04:12:36;;;;;;;14.57;2.75;;;;;;;15.39;100.00;98681.22;4414409;32;20042;-71
2022/07/15 04:15:03;;;;;;;18.27;5.65;;;;;;;15.37;100.00;98637.31;4418263;32;20440;-71
2022/07/15 04:17:31;;;;;;;15.73;6.78;;;;;;;15.58;100.00;98665.78;4418505;32;20082;-70
2022/07/15 04:19:59;;;;;;;11.95;5.80;;;;;;;15.68;100.00;98672.16;4422429;32;20420;-70
2022/07/15 04:22:25;;;;;;;15.95;6.05;;;;;;;15.86;100.00;98682.28;4425052;32;20079;-70
2022/07/15 04:24:52;;;;;;;10.27;4.45;;;;;;;15.89;100.00;98687.12;4427829;32;20046;-70
2022/07/15 04:27:18;;;;;;;17.27;4.18;;;;;;;15.93;100.00;98681.91;4421854;32;20130;-70
2022/07/15 04:29:45;;;;;;;21.85;3.58;;;;;;;15.98;100.00;98700.81;4425959;32;20672;-69
2022/07/15 04:32:12;;;;;;;4.32;1.90;;;;;;;16.09;100.00;98701.50;4447334;32;20059;-70
2022/07/15 04:34:38;;;;;;;2.53;1.40;;;;;;;16.03;100.00;98710.81;4439468;32;20081;-70
2022/07/15 04:37:05;;;;;;;3.03;1.58;;;;;;;15.91;100.00;98698.50;4414355;32;20042;-71
2022/07/15 04:39:32;;;;;;;8.32;1.55;;;;;;;15.95;100.00;98699.50;4446201;32;20087;-71
2022/07/15 04:41:58;;;;;;;3.37;1.27;;;;;;;15.93;100.00;98696.28;4445040;32;20049;-71
2022/07/15 04:44:25;;;;;;;1.80;1.05;;;;;;;15.88;100.00;98692.84;4448525;32;20071;-70
2022/07/15 04:46:51;;;;;;;2.78;1.25;;;;;;;15.44;100.00;98660.28;4445340;32;20461;-70
2022/07/15 04:52:08;;;;;;;4.43;1.23;;;;;;;15.91;100.00;98693.06;4431524;32;20063;-71
2022/07/15 04:54:34;;;;;;;8.00;1.55;;;;;;;15.79;100.00;98709.78;4430863;32;20073;-71
2022/07/15 04:57:07;;;;;;;4.80;1.50;;;;;;;16.01;100.00;98704.87;4432408;32;20191;-73
2022/07/15 04:59:35;;;;;;;5.35;1.37;;;;;;;16.06;100.00;98702.09;4431094;32;20042;-71
2022/07/15 05:02:01;;;;;;;3.30;1.00;;;;;;;15.96;100.00;98703.84;4425831;32;20055;-71
2022/07/15 05:04:28;;;;;;;3.87;0.98;;;;;;;15.69;100.00;98681.94;4425366;32;20107;-76
2022/07/15 05:06:56;;;;;;;5.78;1.20;;;;;;;16.02;100.00;98692.91;4417306;32;20375;-77
2022/07/15 05:09:24;;;;;;;2.28;1.33;;;;;;;16.41;100.00;98724.38;4415347;32;20079;-76
2022/07/15 05:11:50;;;;;;;3.47;1.42;;;;;;;16.22;100.00;98722.47;4417712;32;20038;-75
2022/07/15 05:14:17;;;;;;;3.12;1.10;;;;;;;16.21;100.00;98704.59;4411992;32;20041;-76
2022/07/15 05:16:44;;;;;;;6.12;1.27;;;;;;;16.28;100.00;98736.81;4432165;32;20046;-76
2022/07/15 05:19:10;;;;;;;3.25;1.33;;;;;;;16.27;100.00;98755.00;4432250;32;20042;-75
2022/07/15 05:21:37;;;;;;;2.95;1.30;;;;;;;16.14;100.00;98715.00;4428999;32;20496;-75
2022/07/15 05:24:04;;;;;;;2.80;0.90;;;;;;;16.07;100.00;98709.12;4431546;32;20042;-75
2022/07/15 05:26:31;;;;;;;2.70;1.10;;;;;;;16.15;100.00;98757.34;4431363;32;20034;-75
2022/07/15 05:28:57;;;;;;;2.58;1.05;;;;;;;15.88;100.00;98712.63;4417812;32;20058;-76
2022/07/15 05:31:24;;;;;;;6.50;1.48;;;;;;;15.79;100.00;98703.53;4429707;32;20060;-77
2022/07/15 05:33:52;;;;;;;6.20;1.33;;;;;;;15.93;100.00;98737.00;4412878;32;20380;-75
2022/07/15 05:36:20;;;;;;;4.20;1.12;;;;;;;15.97;100.00;98738.03;4415431;32;20128;-74
2022/07/15 05:38:46;;;;;;;4.62;1.98;;;;;;;15.97;100.00;98758.94;4418093;32;20051;-75
2022/07/15 05:41:13;;;;;;;2.08;1.30;;;;;;;15.75;100.00;98757.56;4418376;32;20119;-76
2022/07/15 05:43:39;;;;;;;3.67;1.37;;;;;;;15.73;100.00;98764.38;4416903;32;20049;-75
2022/07/15 05:46:06;;;;;;;3.65;1.80;;;;;;;15.90;100.00;98759.31;4421358;32;20060;-75
2022/07/15 05:48:37;;;;;;;7.37;1.87;;;;;;;15.76;100.00;98761.09;4416269;32;20057;-76
2022/07/15 05:51:04;;;;;;;5.57;1.23;;;;;;;15.72;100.00;98730.22;4416333;32;20034;-76
2022/07/15 05:53:31;;;;;;;12.50;1.73;;;;;;;15.88;100.00;98734.34;4415366;32;20042;-75
2022/07/15 05:55:58;;;;;;;3.35;1.20;;;;;;;16.28;100.00;98764.75;4415741;32;20039;-74
2022/07/15 05:58:27;;;;;;;1.15;1.05;;;;;;;16.25;100.00;98727.31;4414450;32;20360;-75
2022/07/15 06:00:54;;;;;;;1.67;1.00;;;;;;;16.36;100.00;98759.78;4416059;32;20034;-83
2022/07/15 06:03:21;;;;;;;1.55;0.98;;;;;;;16.27;100.00;98773.22;4402783;32;20054;-75
2022/07/15 06:05:48;;;;;;;5.80;1.08;;;;;;;16.59;100.00;98786.03;4420511;32;20063;-74
2022/07/15 06:08:22;;;;;;;2.70;1.00;;;;;;;16.34;100.00;98752.72;4421401;32;20339;-74
2022/07/15 06:10:49;;;;;;;6.80;1.50;;;;;;;16.52;100.00;98780.19;4430482;32;20174;-74
2022/07/15 06:13:15;;;;;;;1.77;1.05;;;;;;;16.59;100.00;98796.91;4422669;32;20356;-74
2022/07/15 06:15:42;;;;;;;1.10;1.10;;;;;;;16.29;100.00;98750.09;4421479;32;20033;-73
2022/07/15 06:18:09;;;;;;;9.00;2.35;;;;;;;16.68;100.00;98799.78;4419216;32;20059;-74
2022/07/15 06:20:36;;;;;;;1.95;1.30;;;;;;;16.34;100.00;98760.88;4429527;32;20280;-75
2022/07/15 06:23:02;;;;;;;6.53;1.25;;;;;;;16.50;100.00;98794.06;4417391;32;20089;-75
2022/07/15 06:25:29;;;;;;;2.28;1.00;;;;;;;16.46;100.00;98797.66;4414028;32;20072;-76
2022/07/15 06:27:55;;;;;;;5.18;1.30;;;;;;;16.24;100.00;98752.88;4417398;32;20072;-74
2022/07/15 06:30:22;;;;;;;2.08;1.00;;;;;;;16.70;100.00;98797.56;4417222;32;20034;-75
2022/07/15 06:32:49;;;;;;;6.40;1.30;;;;;;;16.38;100.00;98811.91;4419764;32;20107;-75
2022/07/15 06:35:15;;;;;;;4.53;1.10;;;;;;;15.97;100.00;98776.06;4419708;32;20129;-74
2022/07/15 06:37:41;;;;;;;5.45;1.23;;;;;;;16.63;100.00;98819.69;4413340;32;20064;-75
2022/07/15 06:40:09;;;;;;;1.50;1.35;;;;;;;16.41;100.00;98790.38;4418519;32;20104;-74
2022/07/15 06:42:37;;;;;;;1.62;1.30;;;;;;;16.42;100.00;98773.00;4422944;32;20046;-75
2022/07/15 06:45:05;;;;;;;1.42;0.90;;;;;;;16.45;100.00;98790.59;4419707;32;20068;-75
2022/07/15 06:47:32;;;;;;;2.95;0.80;;;;;;;16.32;100.00;98773.97;4424285;32;20375;-76
2022/07/15 06:50:02;;;;;;;8.38;0.98;;;;;;;16.30;100.00;98776.13;4415621;32;20107;-76
2022/07/15 06:52:29;;;;;;;8.10;1.30;;;;;;;16.79;100.00;98809.41;4415148;32;20069;-76
2022/07/15 06:54:56;;;;;;;6.18;1.30;;;;;;;16.67;100.00;98765.53;4421384;32;20064;-75
2022/07/15 06:57:22;;;;;;;5.90;1.58;;;;;;;16.88;100.00;98793.22;4420436;32;20046;-75
2022/07/15 06:59:50;;;;;;;2.45;0.85;;;;;;;16.83;100.00;98807.72;4417130;32;20778;-75
2022/07/15 07:02:17;;;;;;;4.47;1.35;;;;;;;16.87;100.00;98829.69;4405104;32;20052;-76
2022/07/15 07:04:44;;;;;;;3.85;0.85;;;;;;;16.71;100.00;98793.75;4429323;32;20052;-75
2022/07/15 07:07:12;;;;;;;3.08;1.23;;;;;;;16.98;100.00;98833.88;4425968;32;20142;-76
2022/07/15 07:09:39;;;;;;;3.85;0.90;;;;;;;16.73;100.00;98793.47;4409695;32;20048;-76
2022/07/15 07:12:06;;;;;;;1.05;0.70;;;;;;;16.97;100.00;98839.59;4429190;32;20426;-75
2022/07/15 07:14:32;;;;;;;8.20;0.80;;;;;;;17.02;100.00;98848.50;4432809;32;20068;-75
2022/07/15 07:16:59;;;;;;;11.27;1.20;;;;;;;17.11;100.00;98828.78;4421038;32;20050;-74
2022/07/15 07:19:26;;;;;;;7.10;1.08;;;;;;;16.81;100.00;98798.22;4418484;32;20060;-75
2022/07/15 07:21:52;;;;;;;4.40;1.02;;;;;;;17.11;100.00;98834.22;4418015;32;20084;-75
2022/07/15 07:24:18;;;;;;;5.87;0.93;;;;;;;16.75;100.00;98865.44;4401154;32;20047;-74
2022/07/15 07:26:45;;;;;;;3.30;1.12;;;;;;;16.61;100.00;98804.78;4418530;32;20038;-76
2022/07/15 07:29:12;;;;;;;3.50;0.80;;;;;;;16.96;100.00;98849.69;4427445;32;20041;-75
2022/07/15 07:31:38;;;;;;;1.42;1.00;;;;;;;16.74;100.00;98860.31;4429418;32;20085;-74
2022/07/15 07:34:05;;;;;;;3.22;1.00;;;;;;;16.82;100.00;98821.59;4428681;32;20060;-75
2022/07/15 07:36:31;;;;;;;1.90;0.90;;;;;;;17.15;100.00;98848.81;4419072;32;20351;-75
2022/07/15 07:38:57;;;;;;;3.65;1.00;;;;;;;17.15;100.00;98846.94;4420091;32;20075;-74
2022/07/15 07:41:24;;;;;;;3.17;1.00;;;;;;;16.82;100.00;98810.72;4423998;32;20087;-75
2022/07/15 07:43:50;;;;;;;12.15;1.70;;;;;;;17.35;100.00;98861.28;4421567;32;20058;-75
2022/07/15 07:46:17;;;;;;;9.50;1.12;;;;;;;17.38;100.00;98877.03;4414447;32;20111;-75
2022/07/15 07:48:43;;;;;;;1.65;0.90;;;;;;;17.42;100.00;98889.75;4416962;32;20339;-76
2022/07/15 07:51:09;;;;;;;2.15;0.70;;;;;;;17.42;100.00;98878.84;4414576;32;20038;-76
2022/07/15 07:53:36;;;;;;;8.23;1.08;;;;;;;17.47;100.00;98868.97;4416615;32;20055;-77
2022/07/15 07:56:03;;;;;;;7.15;0.80;;;;;;;16.87;100.00;98824.25;4415343;32;20064;-77
2022/07/15 07:58:29;;;;;;;4.72;0.73;;;;;;;17.18;100.00;98883.59;4416445;32;20046;-75
2022/07/15 08:00:56;;;;;;;2.47;0.85;;;;;;;17.35;99.11;98883.84;4418215;32;20429;-76
2022/07/15 08:03:23;;;;;;;6.35;1.35;;;;;;;17.17;100.00;98871.13;4417725;32;20047;-78
2022/07/15 08:05:49;;;;;;;3.45;0.98;;;;;;;17.23;100.00;98839.97;4417746;32;20506;-76
2022/07/15 08:08:19;;;;;;;5.60;1.23;;;;;;;17.72;100.00;98870.44;4424868;32;20382;-76
2022/07/15 08:10:48;;;;;;;2.40;1.10;;;;;;;17.88;100.00;98884.59;4422476;32;20068;-77
2022/07/15 08:13:16;;;;;;;6.60;1.30;;;;;;;17.18;99.30;98840.06;4417554;32;20034;-76
2022/07/15 08:15:43;;;;;;;7.22;0.77;;;;;;;17.75;96.54;98886.16;4417781;32;20038;-77
2022/07/15 08:18:10;;;;;;;3.92;1.10;;;;;;;17.67;96.69;98860.44;4437160;32;20096;-76
2022/07/15 08:20:36;;;;;;;3.58;0.77;;;;;;;17.82;97.78;98861.25;4434547;32;20086;-75
2022/07/15 08:23:04;;;;;;;3.15;1.45;;;;;;;18.13;98.12;98899.66;4430325;32;20068;-75
2022/07/15 08:25:33;;;;;;;5.37;1.30;;;;;;;17.89;96.24;98918.91;4433031;32;20359;-75
2022/07/15 08:28:00;;;;;;;2.50;0.88;;;;;;;17.78;96.13;98908.16;4433422;32;20345;-75
2022/07/15 08:30:28;;;;;;;3.55;0.93;;;;;;;17.79;97.82;98890.72;4408861;32;20067;-76
2022/07/15 08:32:54;;;;;;;4.50;0.70;;;;;;;17.78;96.83;98853.69;4421127;32;20046;-75
2022/07/15 08:35:22;;;;;;;0.65;0.65;;;;;;;17.87;95.55;98861.16;4419363;32;20042;-75
2022/07/15 08:37:48;;;;;;;1.08;0.75;;;;;;;17.71;79.37;98885.97;4432832;32;20070;-75
2022/07/15 08:40:23;;;;;;;4.65;1.25;;;;;;;17.56;83.43;98829.06;4432588;32;20435;-74
2022/07/15 08:42:50;;;;;;;2.53;0.85;;;;;;;18.06;87.69;98896.50;4426424;32;20058;-75
2022/07/15 08:45:17;;;;;;;10.95;0.95;;;;;;;17.66;92.08;98872.44;4432864;32;20139;-75
2022/07/15 08:47:46;;;;;;;2.50;1.05;;;;;;;18.04;91.25;98899.53;4432726;32;20067;-74
2022/07/15 08:50:15;;;;;;;3.12;0.90;;;;;;;17.87;96.90;98910.16;4432336;32;20064;-75
2022/07/15 08:52:43;;;;;;;5.72;1.50;;;;;;;17.96;95.23;98859.38;4432407;32;20037;-74
2022/07/15 08:55:10;;;;;;;2.00;0.90;;;;;;;18.05;92.71;98879.34;4431741;32;20111;-75
2022/07/15 08:57:36;;;;;;;3.35;1.00;;;;;;;18.19;91.59;98867.63;4425815;32;20056;-75
2022/07/15 09:00:07;;;;;;;2.75;0.90;;;;;;;18.08;95.12;98906.00;4427736;32;20391;-76
2022/07/15 09:02:36;;;;;;;3.83;1.52;;;;;;;17.99;93.62;98886.00;4432611;32;20488;-74
2022/07/15 09:05:17;;;;;;;0.68;0.68;;;;;;;18.25;91.15;98899.12;4432098;32;20345;-76
2022/07/15 09:07:55;;;;;;;1.23;1.10;;;;;;;18.30;92.02;98907.19;4432864;32;20026;-76
2022/07/15 09:10:24;;;;;;;3.67;0.80;;;;;;;18.38;80.98;98868.34;4425105;32;20133;-75
2022/07/15 09:12:52;;;;;;;17.35;1.50;;;;;;;18.80;78.62;98904.50;4418481;32;20037;-76
2022/07/15 09:15:32;;;;;;;2.45;0.85;;;;;;;18.84;75.44;98875.53;4432497;32;20026;-74
2022/07/15 09:18:09;;;;;;;2.55;0.77;;;;;;;18.80;77.26;98909.94;4432309;32;20089;-75
2022/07/15 09:20:36;;;;;;;4.45;0.90;;;;;;;18.69;71.55;98894.94;4427987;32;20046;-74
2022/07/15 09:23:03;;;;;;;4.03;0.70;;;;;;;18.68;71.92;98950.56;4427652;32;20060;-75
2022/07/15 09:25:33;;;;;;;4.00;0.98;;;;;;;18.51;74.53;98962.13;4416824;32;20035;-74
2022/07/15 09:28:04;;;;;;;8.30;1.15;;;;;;;18.30;75.34;98901.75;4416970;32;20081;-74
2022/07/15 09:33:43;;;;;;;8.65;0.82;;;;;;;18.17;76.54;98913.47;4431618;32;20376;-75
2022/07/15 09:36:18;;;;;;;4.12;0.75;;;;;;;18.49;75.94;98929.72;4432304;32;20064;-75
2022/07/15 09:38:52;;;;;;;7.32;0.90;;;;;;;18.48;73.75;98946.38;4432135;32;20060;-76
2022/07/15 09:41:28;;;;;;;5.12;1.02;;;;;;;18.50;76.24;98944.94;4431495;32;20545;-76
2022/07/15 09:44:12;;;;;;;2.05;1.27;;;;;;;18.59;69.88;98941.50;4430870;32;20387;-75
2022/07/15 09:46:43;;;;;;;6.95;0.75;;;;;;;18.37;69.13;98945.75;4432138;32;20037;-75
2022/07/15 09:49:12;;;;;;;1.58;0.80;;;;;;;18.14;68.43;98910.25;4415839;32;20064;-76
2022/07/15 09:51:49;;;;;;;3.85;0.77;;;;;;;18.25;63.92;98904.56;4416270;32;20064;-75
2022/07/15 09:54:17;;;;;;;3.30;0.90;;;;;;;18.30;64.01;98939.91;4417112;32;20068;-76
2022/07/15 09:56:45;;;;;;;2.58;0.80;;;;;;;18.41;62.54;98935.06;4416383;32;20088;-75
2022/07/15 09:59:12;;;;;;;0.88;0.65;;;;;;;18.17;64.00;98957.06;4416549;32;20437;-74
2022/07/15 10:01:39;;;;;;;4.30;0.80;;;;;;;18.25;59.33;98910.03;4426697;32;20030;-76
2022/07/15 10:04:06;;;;;;;2.00;0.95;;;;;;;18.42;61.67;98921.13;4423576;32;20049;-74
2022/07/15 10:06:37;;;;;;;4.60;1.02;;;;;;;18.44;61.48;98957.06;4431148;32;20075;-76
2022/07/15 10:09:06;;;;;;;2.55;1.23;;;;;;;18.53;63.29;98921.72;4417781;32;20046;-76
2022/07/15 10:11:38;;;;;;;3.22;0.90;;;;;;;18.87;61.97;98954.03;4428382;32;20080;-76
2022/07/15 10:14:19;;;;;;;7.95;0.93;;;;;;;18.88;60.89;98946.63;4425624;32;20084;-73
2022/07/15 10:17:13;;;;;;;1.20;1.10;;;;;;;18.39;66.02;98927.19;4420129;32;20436;-73
2022/07/15 10:19:57;;;;;;;3.37;1.20;;;;;;;18.91;62.05;98947.94;4416599;32;20066;-74
2022/07/15 10:22:44;;;;;;;5.90;1.15;;;;;;;18.65;62.53;98929.38;4417448;32;20042;-74
2022/07/15 10:25:15;;;;;;;4.05;0.65;;;;;;;18.75;61.03;98961.06;4430143;32;20050;-74
2022/07/15 10:28:07;;;;;;;9.02;1.00;;;;;;;18.63;62.39;98964.31;4431052;32;20030;-75
2022/07/15 10:30:34;;;;;;;4.28;0.85;;;;;;;18.69;61.94;98960.38;4414098;32;20324;-74
2022/07/15 10:33:04;;;;;;;1.60;0.70;;;;;;;18.79;63.04;98957.41;4432355;32;20402;-74
2022/07/15 10:35:45;;;;;;;9.10;1.17;;;;;;;18.76;62.01;98968.94;4437484;32;20081;-75
2022/07/15 10:38:34;;;;;;;3.87;0.93;;;;;;;19.09;61.21;98955.16;4436737;32;20071;-74
2022/07/15 10:41:14;;;;;;;4.20;1.02;;;;;;;18.81;59.99;98966.13;4418265;32;20145;-74
2022/07/15 10:43:48;;;;;;;4.10;1.27;;;;;;;18.48;63.63;98916.38;4434470;32;20050;-75
2022/07/15 10:46:21;;;;;;;5.03;1.15;;;;;;;18.69;60.00;98935.84;4411170;32;20042;-75
2022/07/15 10:48:49;;;;;;;6.45;0.80;;;;;;;18.52;61.03;98948.19;4437795;32;20724;-75
2022/07/15 10:51:35;;;;;;;0.62;0.62;;;;;;;18.64;58.75;98965.94;4442080;32;20075;-75
2022/07/15 10:54:17;;;;;;;2.40;0.80;;;;;;;18.71;58.07;98988.16;4442355;32;20104;-74
2022/07/15 10:56:47;;;;;;;4.07;0.73;;;;;;;18.02;60.53;98934.44;4435799;32;20067;-75
2022/07/15 10:59:21;;;;;;;5.93;0.82;;;;;;;18.46;59.81;98943.13;4435905;32;20034;-74
2022/07/15 11:01:49;;;;;;;1.87;0.70;;;;;;;18.59;57.61;98964.13;4420598;32;20178;-74
2022/07/15 11:04:26;;;;;;;4.97;0.93;;;;;;;18.71;59.46;98988.16;4407016;32;20050;-74
2022/07/15 11:07:01;;;;;;;2.22;0.80;;;;;;;18.60;58.49;98937.66;4429289;32;20043;-74
2022/07/15 11:09:54;;;;;;;6.72;1.00;;;;;;;19.03;54.29;98972.75;4429063;32;20358;-77
2022/07/15 11:15:18;;;;;;;2.05;1.00;;;;;;;18.62;57.51;98951.78;4417179;32;20124;-75
2022/07/15 11:17:52;;;;;;;6.43;1.00;;;;;;;18.93;60.78;98994.81;4429664;32;20045;-75
2022/07/15 11:20:28;;;;;;;6.78;1.15;;;;;;;18.56;59.33;98953.03;4421490;32;20054;-74
2022/07/15 11:22:56;;;;;;;6.15;1.60;;;;;;;18.95;58.94;98987.13;4433121;32;20367;-75
2022/07/15 11:25:30;;;;;;;3.45;0.82;;;;;;;18.90;59.18;98984.53;4435845;32;20080;-75
2022/07/15 11:28:02;;;;;;;2.95;0.82;;;;;;;18.81;57.62;98998.84;4441595;32;20054;-75
2022/07/15 11:30:36;;;;;;;4.32;0.80;;;;;;;19.11;55.15;99010.22;4431038;32;20067;-76
2022/07/15 11:33:04;;;;;;;3.15;0.50;;;;;;;18.26;53.67;98960.69;4442968;32;20465;-77
2022/07/15 11:35:43;;;;;;;1.95;1.10;;;;;;;18.50;53.46;98965.94;4429327;32;21596;-75
2022/07/15 11:38:09;;;;;;;4.35;0.88;;;;;;;18.51;55.40;98995.63;4419324;32;20079;-76
2022/07/15 11:46:15;;;;;;;5.55;1.05;;;;;;;18.17;64.27;99000.66;4435894;32;20046;-75
2022/07/15 11:48:41;;;;;;;0.82;0.73;;;;;;;18.42;60.94;98997.44;4430314;32;20046;-76